createdAt,value
2022-12-13T00:00:35.253Z,44.40
2022-12-13T00:03:05.400Z,44.50
2022-12-13T00:05:31.864Z,44.40
2022-12-13T00:07:58.367Z,44.50
2022-12-13T00:10:24.849Z,44.40
2022-12-13T00:12:51.311Z,44.30
2022-12-13T00:15:17.778Z,44.40
2022-12-13T00:17:44.229Z,44.30
2022-12-13T00:20:10.903Z,44.20
2022-12-13T00:22:37.365Z,44.30
2022-12-13T00:25:03.844Z,44.30
2022-12-13T00:27:30.311Z,44.10
2022-12-13T00:29:56.802Z,44.20
2022-12-13T00:32:23.306Z,44.20
2022-12-13T00:34:49.822Z,44.30
2022-12-13T00:37:16.279Z,44.30
2022-12-13T00:39:42.743Z,44.20
2022-12-13T00:42:09.221Z,44.00
2022-12-13T00:44:35.678Z,44.10
2022-12-13T00:47:02.134Z,44.00
2022-12-13T00:49:29.238Z,44.00
2022-12-13T00:51:55.704Z,44.00
2022-12-13T00:54:22.166Z,43.90
2022-12-13T00:56:48.636Z,44.00
2022-12-13T00:59:15.097Z,43.80
2022-12-13T01:01:41.616Z,43.90
2022-12-13T01:04:08.120Z,43.90
2022-12-13T01:06:34.589Z,43.70
2022-12-13T01:09:01.062Z,43.90
2022-12-13T01:11:27.524Z,43.90
2022-12-13T01:13:59.414Z,43.70
2022-12-13T01:16:25.910Z,43.80
2022-12-13T01:18:53.262Z,43.80
2022-12-13T01:21:19.735Z,43.70
2022-12-13T01:23:46.193Z,43.70
2022-12-13T01:26:12.663Z,43.80
2022-12-13T01:28:39.121Z,44.60
2022-12-13T01:31:11.343Z,43.60
2022-12-13T01:33:41.508Z,43.70
2022-12-13T01:36:07.972Z,43.50
2022-12-13T01:38:37.931Z,43.60
2022-12-13T01:41:17.051Z,43.70
2022-12-13T01:43:44.384Z,44.60
2022-12-13T01:46:11.356Z,44.50
2022-12-13T01:48:37.870Z,44.60
2022-12-13T01:51:04.364Z,44.60
2022-12-13T01:53:35.409Z,44.50
2022-12-13T01:58:52.704Z,44.50
2022-12-13T02:01:19.231Z,44.40
2022-12-13T02:03:45.716Z,44.50
2022-12-13T02:06:17.351Z,44.50
2022-12-13T02:08:43.818Z,44.30
2022-12-13T02:11:10.287Z,44.30
2022-12-13T02:13:37.097Z,44.40
2022-12-13T02:16:03.622Z,44.30
2022-12-13T02:18:35.519Z,44.30
2022-12-13T02:21:01.990Z,44.20
2022-12-13T02:23:29.348Z,44.20
2022-12-13T02:25:55.797Z,44.10
2022-12-13T02:28:31.474Z,44.00
2022-12-13T02:30:58.777Z,44.00
2022-12-13T02:33:25.284Z,44.10
2022-12-13T02:35:52.823Z,44.00
2022-12-13T02:38:24.459Z,44.00
2022-12-13T02:40:51.264Z,44.00
2022-12-13T02:43:23.515Z,43.90
2022-12-13T02:45:49.999Z,43.90
2022-12-13T02:48:16.459Z,43.80
2022-12-13T02:50:42.942Z,43.90
2022-12-13T02:53:09.408Z,43.90
2022-12-13T02:55:35.869Z,43.80
2022-12-13T02:58:05.562Z,43.80
2022-12-13T03:00:32.024Z,43.90
2022-12-13T03:02:59.477Z,43.90
2022-12-13T03:05:26.018Z,43.90
2022-12-13T03:07:52.508Z,43.70
2022-12-13T03:10:19.000Z,43.60
2022-12-13T03:12:45.454Z,43.70
2022-12-13T03:15:12.111Z,43.70
2022-12-13T03:17:38.762Z,43.70
2022-12-13T03:20:22.459Z,43.70
2022-12-13T03:22:49.882Z,43.70
2022-12-13T03:25:31.584Z,43.60
2022-12-13T03:28:01.101Z,43.70
2022-12-13T03:30:29.365Z,43.70
2022-12-13T03:32:55.837Z,43.70
2022-12-13T03:35:23.426Z,43.70
2022-12-13T03:37:49.963Z,43.60
2022-12-13T03:40:16.411Z,43.50
2022-12-13T03:42:42.873Z,43.50
2022-12-13T03:45:11.426Z,43.40
2022-12-13T03:47:37.891Z,43.30
2022-12-13T03:50:25.618Z,43.40
2022-12-13T03:52:50.818Z,43.30
2022-12-13T03:55:17.396Z,43.50
2022-12-13T03:57:47.431Z,43.30
2022-12-13T04:00:13.895Z,43.40
2022-12-13T04:02:40.408Z,43.10
2022-12-13T04:05:06.887Z,43.20
2022-12-13T04:07:34.056Z,43.10
2022-12-13T04:10:00.970Z,43.10
2022-12-13T04:12:27.450Z,43.20
2022-12-13T04:14:53.899Z,43.30
2022-12-13T04:17:20.382Z,43.40
2022-12-13T04:19:46.819Z,43.10
2022-12-13T04:22:13.301Z,43.30
2022-12-13T04:24:39.751Z,43.10
2022-12-13T04:27:06.236Z,43.00
2022-12-13T04:29:34.303Z,43.30
2022-12-13T04:32:01.528Z,43.00
2022-12-13T04:34:30.690Z,43.00
2022-12-13T04:37:01.641Z,43.10
2022-12-13T04:39:28.092Z,43.10
2022-12-13T04:42:01.054Z,42.90
2022-12-13T04:44:31.468Z,42.90
2022-12-13T04:47:01.444Z,43.00
2022-12-13T04:49:28.074Z,43.10
2022-12-13T04:51:59.019Z,43.10
2022-12-13T04:54:35.544Z,42.90
2022-12-13T04:57:03.423Z,42.90
2022-12-13T04:59:35.518Z,42.90
2022-12-13T05:02:11.642Z,43.00
2022-12-13T05:04:38.167Z,42.90
2022-12-13T05:07:05.443Z,42.80
2022-12-13T05:12:23.528Z,42.80
2022-12-13T05:14:53.522Z,42.80
2022-12-13T05:17:20.009Z,42.70
2022-12-13T05:19:46.458Z,42.60
2022-12-13T05:22:20.625Z,42.70
2022-12-13T05:24:47.603Z,42.60
2022-12-13T05:27:24.030Z,42.80
2022-12-13T05:29:57.670Z,42.60
2022-12-13T05:32:30.511Z,42.60
2022-12-13T05:34:56.959Z,42.80
2022-12-13T05:37:23.400Z,42.60
2022-12-13T05:39:49.872Z,42.60
2022-12-13T05:42:16.337Z,42.50
2022-12-13T05:44:42.811Z,42.60
2022-12-13T05:47:11.513Z,42.60
2022-12-13T05:49:41.506Z,42.50
2022-12-13T05:52:07.955Z,42.70
2022-12-13T05:54:35.533Z,42.50
2022-12-13T05:57:02.000Z,42.50
2022-12-13T05:59:28.460Z,42.50
2022-12-13T06:01:54.952Z,42.40
2022-12-13T06:04:22.076Z,42.50
2022-12-13T06:06:51.136Z,42.50
2022-12-13T06:09:17.913Z,42.30
2022-12-13T06:11:44.369Z,42.40
2022-12-13T06:14:21.643Z,42.50
2022-12-13T06:16:53.685Z,42.40
2022-12-13T06:19:23.549Z,42.30
2022-12-13T06:21:50.013Z,42.20
2022-12-13T06:24:16.474Z,42.30
2022-12-13T06:26:45.170Z,42.20
2022-12-13T06:29:12.438Z,42.20
2022-12-13T06:31:38.921Z,42.30
2022-12-13T06:34:14.227Z,42.30
2022-12-13T06:36:41.779Z,42.30
2022-12-13T06:39:08.233Z,42.40
2022-12-13T06:41:35.562Z,42.40
2022-12-13T06:44:02.009Z,42.10
2022-12-13T06:46:28.536Z,42.20
2022-12-13T06:48:55.014Z,42.10
2022-12-13T06:51:23.119Z,42.10
2022-12-13T06:54:00.814Z,42.10
2022-12-13T06:56:27.523Z,42.10
2022-12-13T06:58:53.978Z,42.00
2022-12-13T07:01:28.629Z,42.10
2022-12-13T07:04:05.554Z,41.90
2022-12-13T07:06:52.010Z,42.00
2022-12-13T07:09:18.463Z,41.90
2022-12-13T07:11:51.439Z,42.10
2022-12-13T07:14:18.660Z,42.10
2022-12-13T07:16:45.119Z,42.00
2022-12-13T07:19:22.730Z,42.10
2022-12-13T07:21:53.593Z,42.10
2022-12-13T07:24:27.706Z,41.80
2022-12-13T07:26:54.184Z,41.80
2022-12-13T07:29:22.188Z,41.80
2022-12-13T07:31:53.613Z,41.80
2022-12-13T07:34:27.680Z,41.70
2022-12-13T07:36:54.138Z,41.80
2022-12-13T07:39:20.614Z,41.70
2022-12-13T07:41:47.094Z,41.80
2022-12-13T07:44:13.553Z,41.70
2022-12-13T07:46:41.641Z,41.80
2022-12-13T07:49:08.125Z,41.80
2022-12-13T07:51:34.607Z,41.60
2022-12-13T07:54:01.055Z,41.60
2022-12-13T07:56:33.140Z,41.80
2022-12-13T07:58:59.599Z,41.60
2022-12-13T08:01:26.128Z,41.70
2022-12-13T08:03:52.618Z,41.80
2022-12-13T08:06:19.073Z,41.50
2022-12-13T08:08:45.546Z,41.50
2022-12-13T08:11:12.018Z,41.60
2022-12-13T08:13:38.483Z,41.60
2022-12-13T08:16:05.648Z,41.70
2022-12-13T08:18:52.073Z,41.60
2022-12-13T08:21:53.487Z,41.80
2022-12-13T08:24:16.109Z,41.60
2022-12-13T08:26:42.585Z,41.50
2022-12-13T08:29:09.050Z,41.60
2022-12-13T08:31:35.782Z,41.50
2022-12-13T08:34:05.823Z,41.70
2022-12-13T08:36:32.309Z,41.60
2022-12-13T08:38:58.751Z,41.60
2022-12-13T08:41:25.238Z,41.50
2022-12-13T08:43:51.709Z,41.40
2022-12-13T08:46:18.276Z,41.50
2022-12-13T08:48:45.114Z,41.50
2022-12-13T08:51:11.944Z,41.30
2022-12-13T08:53:41.211Z,41.50
2022-12-13T08:56:07.941Z,41.50
2022-12-13T08:58:34.392Z,41.50
2022-12-13T09:01:00.927Z,41.50
2022-12-13T09:03:27.427Z,41.60
2022-12-13T09:05:53.907Z,41.60
2022-12-13T09:08:23.643Z,41.50
2022-12-13T09:10:51.782Z,41.60
2022-12-13T09:13:31.345Z,41.60
2022-12-13T09:16:01.479Z,41.50
2022-12-13T09:18:36.186Z,41.40
2022-12-13T09:21:11.071Z,41.50
2022-12-13T09:23:38.632Z,41.50
2022-12-13T09:26:12.383Z,41.50
2022-12-13T09:28:41.648Z,41.50
2022-12-13T09:31:09.493Z,41.60
2022-12-13T09:33:40.783Z,41.50
2022-12-13T09:36:08.108Z,41.50
2022-12-13T09:38:35.774Z,42.40
2022-12-13T09:41:05.710Z,41.80
2022-12-13T09:43:43.273Z,41.60
2022-12-13T09:46:13.299Z,41.60
2022-12-13T09:48:49.800Z,41.70
2022-12-13T09:51:28.709Z,41.80
2022-12-13T09:54:02.722Z,41.90
2022-12-13T09:56:29.185Z,41.80
2022-12-13T09:58:55.657Z,41.70
2022-12-13T10:01:22.286Z,41.80
2022-12-13T10:03:49.627Z,41.90
2022-12-13T10:06:23.392Z,41.90
2022-12-13T10:08:50.400Z,41.80
2022-12-13T10:11:32.293Z,41.70
2022-12-13T10:14:01.465Z,41.80
2022-12-13T10:16:28.355Z,41.80
2022-12-13T10:19:03.020Z,41.90
2022-12-13T10:21:29.509Z,41.80
2022-12-13T10:26:42.504Z,41.80
2022-12-13T10:29:09.005Z,42.00
2022-12-13T10:31:35.572Z,42.00
2022-12-13T10:34:02.076Z,42.10
2022-12-13T10:36:28.560Z,42.10
2022-12-13T10:38:59.786Z,42.10
2022-12-13T10:41:26.259Z,42.10
2022-12-13T10:43:52.713Z,42.10
2022-12-13T10:46:25.068Z,42.20
2022-12-13T10:48:52.005Z,42.20
2022-12-13T10:51:23.774Z,42.10
2022-12-13T10:53:50.247Z,42.20
2022-12-13T10:56:23.712Z,42.30
2022-12-13T10:58:53.877Z,42.30
2022-12-13T11:01:20.398Z,42.20
2022-12-13T11:03:46.896Z,42.20
2022-12-13T11:06:17.774Z,42.30
2022-12-13T11:08:44.244Z,42.30
2022-12-13T11:11:10.707Z,42.30
2022-12-13T11:13:37.170Z,42.30
2022-12-13T11:16:03.644Z,42.30
2022-12-13T11:18:35.982Z,42.40
2022-12-13T11:21:02.446Z,42.40
2022-12-13T11:23:35.817Z,42.40
2022-12-13T11:26:05.812Z,42.50
2022-12-13T11:28:35.991Z,42.50
2022-12-13T11:31:02.455Z,42.50
2022-12-13T11:33:28.945Z,42.50
2022-12-13T11:35:55.438Z,42.60
2022-12-13T11:38:22.145Z,42.70
2022-12-13T11:40:48.785Z,42.50
2022-12-13T11:43:15.251Z,42.50
2022-12-13T11:45:41.809Z,42.50
2022-12-13T11:48:08.367Z,42.50
2022-12-13T11:50:34.938Z,42.70
2022-12-13T11:53:01.419Z,42.80
2022-12-13T11:55:29.770Z,42.70
2022-12-13T11:57:56.224Z,42.70
2022-12-13T12:00:34.312Z,42.70
2022-12-13T12:03:01.563Z,42.70
2022-12-13T12:05:28.189Z,42.70
2022-12-13T12:10:49.659Z,42.80
2022-12-13T12:13:17.986Z,42.80
2022-12-13T12:15:44.481Z,42.90
2022-12-13T12:18:11.828Z,42.90
2022-12-13T12:20:38.343Z,42.90
2022-12-13T12:23:05.853Z,42.90
2022-12-13T12:25:32.313Z,42.90
2022-12-13T12:27:58.806Z,42.90
2022-12-13T12:30:29.923Z,43.00
2022-12-13T12:32:56.403Z,42.90
2022-12-13T12:35:22.853Z,42.90
2022-12-13T12:37:49.321Z,43.00
2022-12-13T12:40:17.882Z,42.90
2022-12-13T12:51:12.036Z,43.00
2022-12-13T12:53:38.497Z,43.00
2022-12-13T12:56:04.951Z,43.10
2022-12-13T12:58:31.408Z,43.00
2022-12-13T13:00:57.870Z,43.10
2022-12-13T13:03:24.328Z,43.10
2022-12-13T13:05:50.797Z,43.10
2022-12-13T13:08:17.887Z,43.10
2022-12-13T13:10:49.712Z,43.10
2022-12-13T13:13:16.749Z,43.10
2022-12-13T13:16:05.959Z,43.00
2022-12-13T13:18:35.893Z,43.10
2022-12-13T13:21:06.031Z,43.00
2022-12-13T13:23:40.710Z,43.20
2022-12-13T13:26:24.573Z,43.10
2022-12-13T13:28:54.085Z,43.20
2022-12-13T13:31:20.566Z,43.20
2022-12-13T13:33:47.063Z,43.30
2022-12-13T13:36:13.532Z,43.20
2022-12-13T13:39:01.264Z,43.20
2022-12-13T13:41:28.290Z,43.20
2022-12-13T13:43:54.761Z,43.10
2022-12-13T13:46:21.291Z,43.10
2022-12-13T13:48:48.016Z,43.10
2022-12-13T13:51:14.502Z,43.10
2022-12-13T13:53:40.969Z,43.10
2022-12-13T13:56:07.428Z,43.10
2022-12-13T13:58:35.873Z,43.10
2022-12-13T14:01:05.934Z,43.10
2022-12-13T14:03:34.780Z,43.10
2022-12-13T14:06:01.645Z,43.10
2022-12-13T14:08:28.174Z,43.00
2022-12-13T14:10:54.668Z,43.10
2022-12-13T14:13:21.139Z,43.10
2022-12-13T14:18:38.255Z,43.10
2022-12-13T14:21:05.921Z,43.10
2022-12-13T14:23:32.391Z,43.10
2022-12-13T14:25:58.858Z,43.10
2022-12-13T14:28:25.630Z,43.20
2022-12-13T14:30:57.702Z,43.10
2022-12-13T14:33:24.553Z,43.10
2022-12-13T14:35:51.333Z,43.10
2022-12-13T14:38:17.820Z,43.10
2022-12-13T14:40:44.302Z,43.10
2022-12-13T14:43:11.923Z,43.10
2022-12-13T14:45:50.808Z,43.10
2022-12-13T14:48:28.198Z,43.00
2022-12-13T14:50:55.791Z,43.00
2022-12-13T14:53:22.604Z,43.10
2022-12-13T14:55:49.314Z,43.00
2022-12-13T14:58:15.795Z,43.10
2022-12-13T15:00:42.354Z,43.00
2022-12-13T15:03:08.876Z,43.00
2022-12-13T15:05:35.375Z,43.00
2022-12-13T15:08:11.996Z,43.00
2022-12-13T15:10:38.546Z,42.90
2022-12-13T15:13:05.036Z,42.90
2022-12-13T15:15:31.557Z,43.00
2022-12-13T15:17:58.042Z,42.90
2022-12-13T15:20:24.610Z,42.90
2022-12-13T15:22:54.043Z,43.00
2022-12-13T15:25:20.555Z,43.00
2022-12-13T15:27:48.404Z,42.90
2022-12-13T15:30:15.251Z,42.80
2022-12-13T15:32:41.759Z,42.80
2022-12-13T15:35:08.251Z,42.90
2022-12-13T15:37:35.983Z,42.90
2022-12-13T15:40:02.474Z,42.90
2022-12-13T15:42:28.949Z,42.90
2022-12-13T15:44:55.436Z,42.90
2022-12-13T15:47:27.931Z,42.80
2022-12-13T15:49:55.639Z,42.80
2022-12-13T15:52:24.015Z,42.90
2022-12-13T15:54:50.492Z,42.90
2022-12-13T15:57:16.972Z,42.90
2022-12-13T15:59:43.435Z,42.80
2022-12-13T16:02:09.932Z,42.80
2022-12-13T16:04:36.410Z,42.90
2022-12-13T16:07:02.915Z,42.80
2022-12-13T16:09:29.404Z,42.80
2022-12-13T16:11:55.898Z,43.00
2022-12-13T16:14:26.142Z,43.00
2022-12-13T16:16:53.055Z,42.80
2022-12-13T16:19:19.599Z,42.80
2022-12-13T16:21:46.072Z,42.80
2022-12-13T16:24:12.557Z,42.80
2022-12-13T16:26:39.034Z,42.90
2022-12-13T16:29:05.528Z,42.80
2022-12-13T16:31:32.054Z,42.80
2022-12-13T16:33:58.575Z,42.70
2022-12-13T16:36:25.066Z,42.80
2022-12-13T16:38:51.552Z,42.80
2022-12-13T16:41:18.065Z,42.80
2022-12-13T16:43:44.563Z,42.90
2022-12-13T16:47:13.038Z,42.80
2022-12-13T16:48:57.500Z,42.80
2022-12-13T16:51:24.024Z,42.90
2022-12-13T16:53:50.508Z,42.80
2022-12-13T16:56:17.003Z,42.80
2022-12-13T16:58:47.894Z,42.90
2022-12-13T17:01:16.525Z,42.90
2022-12-13T17:03:43.062Z,42.80
2022-12-13T17:06:09.570Z,42.70
2022-12-13T17:08:36.040Z,42.70
2022-12-13T17:11:02.555Z,42.80
2022-12-13T17:13:29.584Z,42.80
2022-12-13T17:15:59.818Z,42.80
2022-12-13T17:18:26.564Z,42.80
2022-12-13T17:20:58.148Z,42.80
2022-12-13T17:23:25.652Z,42.80
2022-12-13T17:25:57.834Z,42.80
2022-12-13T17:28:24.735Z,42.80
2022-12-13T17:30:54.833Z,42.80
2022-12-13T17:33:22.060Z,42.80
2022-12-13T17:35:48.665Z,42.80
2022-12-13T17:38:18.115Z,42.80
2022-12-13T17:40:54.852Z,42.80
2022-12-13T17:43:31.458Z,42.80
2022-12-13T17:46:00.679Z,42.80
2022-12-13T17:48:27.561Z,42.80
2022-12-13T17:50:54.522Z,42.90
2022-12-13T17:53:20.994Z,42.80
2022-12-13T17:55:47.462Z,42.80
2022-12-13T17:58:13.928Z,42.80
2022-12-13T18:00:40.389Z,42.80
2022-12-13T18:03:06.929Z,42.80
2022-12-13T18:05:33.446Z,42.70
2022-12-13T18:07:59.912Z,42.70
2022-12-13T18:10:29.694Z,42.60
2022-12-13T18:13:00.144Z,42.60
2022-12-13T18:15:26.685Z,42.70
2022-12-13T18:20:39.704Z,42.70
2022-12-13T18:23:06.203Z,42.60
2022-12-13T18:25:32.667Z,42.70
2022-12-13T18:28:01.216Z,42.70
2022-12-13T18:30:30.113Z,42.60
2022-12-13T18:32:56.575Z,42.70
2022-12-13T18:35:23.029Z,42.70
2022-12-13T18:37:54.160Z,42.70
2022-12-13T18:40:20.619Z,42.70
2022-12-13T18:42:47.082Z,42.60
2022-12-13T18:45:18.286Z,42.70
2022-12-13T18:47:44.740Z,42.60
2022-12-13T18:50:11.209Z,42.60
2022-12-13T18:52:37.675Z,42.40
2022-12-13T18:55:04.144Z,42.50
2022-12-13T18:57:30.644Z,42.40
2022-12-13T18:59:57.099Z,42.50
2022-12-13T19:02:24.194Z,42.60
2022-12-13T19:04:55.090Z,42.60
2022-12-13T19:07:22.289Z,42.60
2022-12-13T19:09:54.897Z,42.50
2022-12-13T19:12:21.694Z,42.60
2022-12-13T19:14:54.801Z,42.40
2022-12-13T19:17:24.129Z,42.40
2022-12-13T19:19:50.607Z,43.10
2022-12-13T19:22:17.063Z,42.40
2022-12-13T19:24:48.199Z,42.60
2022-12-13T19:27:14.657Z,42.60
2022-12-13T19:29:41.121Z,42.60
2022-12-13T19:32:07.575Z,42.60
2022-12-13T19:34:34.040Z,42.60
2022-12-13T19:37:06.096Z,42.60
2022-12-13T19:39:36.200Z,42.50
2022-12-13T19:42:02.660Z,42.50
2022-12-13T19:44:29.130Z,42.50
2022-12-13T19:46:55.695Z,42.60
2022-12-13T19:49:22.217Z,42.60
2022-12-13T19:51:48.683Z,42.50
2022-12-13T19:54:15.147Z,42.60
2022-12-13T19:56:41.611Z,42.70
2022-12-13T19:59:08.063Z,43.30
2022-12-13T20:01:36.249Z,42.50
2022-12-13T20:04:02.741Z,42.60
2022-12-13T20:06:29.207Z,42.50
2022-12-13T20:08:55.668Z,42.50
2022-12-13T20:11:22.117Z,42.40
2022-12-13T20:13:48.594Z,42.40
2022-12-13T20:16:15.246Z,42.40
2022-12-13T20:18:41.756Z,42.40
2022-12-13T20:21:12.984Z,42.60
2022-12-13T20:23:39.909Z,42.50
2022-12-13T20:26:06.372Z,42.50
2022-12-13T20:28:32.836Z,42.60
2022-12-13T20:30:59.344Z,42.50
2022-12-13T20:33:26.040Z,42.50
2022-12-13T20:36:22.648Z,42.60
2022-12-13T20:38:39.280Z,42.50
2022-12-13T20:41:06.235Z,42.40
2022-12-13T20:43:32.721Z,42.40
2022-12-13T20:45:59.205Z,42.40
2022-12-13T20:48:25.677Z,42.50
2022-12-13T20:50:52.159Z,42.50
2022-12-13T20:53:19.822Z,42.40
2022-12-13T20:55:48.579Z,42.30
2022-12-13T20:58:15.126Z,42.40
2022-12-13T21:00:41.632Z,42.50
2022-12-13T21:03:08.163Z,42.50
2022-12-13T21:05:34.624Z,42.40
2022-12-13T21:08:01.084Z,42.40
2022-12-13T21:10:27.550Z,42.40
2022-12-13T21:12:54.013Z,42.40
2022-12-13T21:15:20.483Z,42.40
2022-12-13T21:17:46.947Z,42.50
2022-12-13T21:20:13.483Z,42.40
2022-12-13T21:22:39.963Z,42.50
2022-12-13T21:25:06.444Z,42.50
2022-12-13T21:27:32.911Z,42.50
2022-12-13T21:29:59.405Z,42.40
2022-12-13T21:32:25.883Z,42.40
2022-12-13T21:34:52.389Z,42.40
2022-12-13T21:37:18.859Z,42.30
2022-12-13T21:39:45.319Z,42.30
2022-12-13T21:42:11.801Z,42.30
2022-12-13T21:44:38.266Z,42.50
2022-12-13T21:47:13.109Z,42.40
2022-12-13T21:49:40.117Z,42.20
2022-12-13T21:52:06.592Z,42.30
2022-12-13T21:54:33.072Z,42.20
2022-12-13T21:56:59.583Z,42.20
2022-12-13T21:59:26.058Z,42.20
2022-12-13T22:01:52.592Z,42.30
2022-12-13T22:04:19.071Z,42.30
2022-12-13T22:06:45.544Z,42.10
2022-12-13T22:09:11.983Z,42.10
2022-12-13T22:11:38.450Z,42.30
2022-12-13T22:14:04.895Z,42.20
2022-12-13T22:16:31.406Z,42.20
2022-12-13T22:18:57.904Z,42.30
2022-12-13T22:21:24.385Z,42.30
2022-12-13T22:23:50.851Z,42.20
2022-12-13T22:26:17.328Z,42.10
2022-12-13T22:28:43.798Z,42.20
2022-12-13T22:31:10.265Z,42.20
2022-12-13T22:33:36.728Z,42.10
2022-12-13T22:36:03.206Z,42.20
2022-12-13T22:38:29.891Z,42.10
2022-12-13T22:40:56.442Z,42.10
2022-12-13T22:43:22.884Z,42.10
2022-12-13T22:45:49.426Z,42.10
2022-12-13T22:48:15.929Z,42.10
2022-12-13T22:50:42.423Z,42.10
2022-12-13T22:53:08.885Z,42.10
2022-12-13T22:55:35.332Z,42.00
2022-12-13T22:58:01.816Z,42.00
2022-12-13T23:00:28.297Z,41.80
2022-12-13T23:02:54.886Z,41.90
2022-12-13T23:05:21.411Z,41.90
2022-12-13T23:07:48.540Z,42.00
2022-12-13T23:10:15.281Z,41.80
2022-12-13T23:12:41.735Z,41.90
2022-12-13T23:15:08.184Z,41.90
2022-12-13T23:17:34.651Z,41.90
2022-12-13T23:20:01.172Z,41.90
2022-12-13T23:22:27.686Z,42.50
2022-12-13T23:24:54.159Z,41.90
2022-12-13T23:27:20.632Z,41.80
2022-12-13T23:29:47.103Z,41.70
2022-12-13T23:32:13.577Z,41.80
2022-12-13T23:34:40.046Z,41.70
2022-12-13T23:37:06.514Z,41.70
2022-12-13T23:39:32.976Z,41.80
2022-12-13T23:41:59.454Z,41.90
2022-12-13T23:44:25.917Z,41.70
2022-12-13T23:46:52.402Z,41.90
2022-12-13T23:49:19.132Z,41.90
2022-12-13T23:51:45.610Z,41.80
2022-12-13T23:54:12.065Z,41.60
2022-12-13T23:56:38.533Z,41.80
2022-12-13T23:59:05.003Z,41.70
